sensor_id;sensor_type;location;lat;lon;timestamp;pressure;altitude;pressure_sealevel;temperature;humidity
4570;BME280;2297;51.442;6.996;2022-09-09T00:02:15;99588.03;;;16.00;64.58
4570;BME280;2297;51.442;6.996;2022-09-09T00:04:51;99580.50;;;16.08;65.01
4570;BME280;2297;51.442;6.996;2022-09-09T00:07:25;99577.34;;;16.18;64.63
4570;BME280;2297;51.442;6.996;2022-09-09T00:10:07;99577.34;;;16.18;64.52
4570;BME280;2297;51.442;6.996;2022-09-09T00:12:43;99580.66;;;16.05;64.22
4570;BME280;2297;51.442;6.996;2022-09-09T00:15:18;99589.25;;;16.10;64.51
4570;BME280;2297;51.442;6.996;2022-09-09T00:17:48;99576.56;;;16.16;64.73
4570;BME280;2297;51.442;6.996;2022-09-09T00:20:22;99589.25;;;16.10;64.16
4570;BME280;2297;51.442;6.996;2022-09-09T00:22:59;99583.84;;;16.12;64.30
4570;BME280;2297;51.442;6.996;2022-09-09T00:25:31;99585.75;;;16.10;64.04
4570;BME280;2297;51.442;6.996;2022-09-09T00:28:10;99581.88;;;16.16;64.25
4570;BME280;2297;51.442;6.996;2022-09-09T00:30:40;99591.78;;;16.13;64.46
4570;BME280;2297;51.442;6.996;2022-09-09T00:33:11;99591.69;;;15.97;64.42
4570;BME280;2297;51.442;6.996;2022-09-09T00:35:42;99595.78;;;16.05;64.51
4570;BME280;2297;51.442;6.996;2022-09-09T00:38:12;99590.38;;;16.06;64.35
4570;BME280;2297;51.442;6.996;2022-09-09T00:40:46;99581.31;;;15.93;64.33
4570;BME280;2297;51.442;6.996;2022-09-09T00:43:26;99576.59;;;15.82;64.62
4570;BME280;2297;51.442;6.996;2022-09-09T00:46:14;99582.25;;;15.92;64.34
4570;BME280;2297;51.442;6.996;2022-09-09T00:48:53;99581.31;;;15.93;64.45
4570;BME280;2297;51.442;6.996;2022-09-09T00:51:30;99584.44;;;16.01;64.58
4570;BME280;2297;51.442;6.996;2022-09-09T00:54:15;99583.19;;;15.91;64.29
4570;BME280;2297;51.442;6.996;2022-09-09T00:56:55;99582.31;;;15.74;64.83
4570;BME280;2297;51.442;6.996;2022-09-09T00:59:32;99591.03;;;15.94;64.55
4570;BME280;2297;51.442;6.996;2022-09-09T01:02:04;99586.25;;;16.01;64.69
4570;BME280;2297;51.442;6.996;2022-09-09T01:04:36;99581.28;;;16.10;64.35
4570;BME280;2297;51.442;6.996;2022-09-09T01:07:07;99586.59;;;16.10;64.27
4570;BME280;2297;51.442;6.996;2022-09-09T01:09:50;99587.72;;;16.06;64.32
4570;BME280;2297;51.442;6.996;2022-09-09T01:12:26;99585.53;;;15.97;64.60
4570;BME280;2297;51.442;6.996;2022-09-09T01:15:02;99578.19;;;16.02;64.53
4570;BME280;2297;51.442;6.996;2022-09-09T01:17:32;99569.41;;;16.00;64.34
4570;BME280;2297;51.442;6.996;2022-09-09T01:20:08;99574.97;;;15.95;64.30
4570;BME280;2297;51.442;6.996;2022-09-09T01:22:45;99578.66;;;15.93;64.38
4570;BME280;2297;51.442;6.996;2022-09-09T01:25:28;99571.13;;;16.01;64.77
4570;BME280;2297;51.442;6.996;2022-09-09T01:27:59;99570.00;;;16.05;64.84
4570;BME280;2297;51.442;6.996;2022-09-09T01:30:27;99560.91;;;16.09;64.63
4570;BME280;2297;51.442;6.996;2022-09-09T01:32:57;99567.97;;;16.10;64.77
4570;BME280;2297;51.442;6.996;2022-09-09T01:35:39;99569.59;;;16.13;64.50
4570;BME280;2297;51.442;6.996;2022-09-09T01:38:09;99572.41;;;15.94;64.86
4570;BME280;2297;51.442;6.996;2022-09-09T01:40:36;99572.41;;;15.94;65.00
4570;BME280;2297;51.442;6.996;2022-09-09T01:43:05;99563.84;;;16.05;64.59
4570;BME280;2297;51.442;6.996;2022-09-09T01:45:33;99563.66;;;16.08;64.60
4570;BME280;2297;51.442;6.996;2022-09-09T01:48:00;99562.41;;;15.97;64.81
4570;BME280;2297;51.442;6.996;2022-09-09T01:50:27;99557.44;;;15.91;64.90
4570;BME280;2297;51.442;6.996;2022-09-09T01:52:56;99559.72;;;15.99;65.38
4570;BME280;2297;51.442;6.996;2022-09-09T01:55:29;99554.00;;;15.89;65.47
4570;BME280;2297;51.442;6.996;2022-09-09T01:58:02;99556.56;;;15.91;65.40
4570;BME280;2297;51.442;6.996;2022-09-09T02:00:37;99551.59;;;15.85;65.67
4570;BME280;2297;51.442;6.996;2022-09-09T02:03:09;99553.16;;;15.89;65.59
4570;BME280;2297;51.442;6.996;2022-09-09T02:05:38;99553.31;;;15.86;65.52
4570;BME280;2297;51.442;6.996;2022-09-09T02:08:07;99562.06;;;15.72;65.58
4570;BME280;2297;51.442;6.996;2022-09-09T02:10:40;99569.97;;;15.89;64.97
4570;BME280;2297;51.442;6.996;2022-09-09T02:13:10;99564.00;;;15.68;65.61
4570;BME280;2297;51.442;6.996;2022-09-09T02:15:45;99559.09;;;15.60;65.92
4570;BME280;2297;51.442;6.996;2022-09-09T02:18:15;99552.44;;;15.69;65.52
4570;BME280;2297;51.442;6.996;2022-09-09T02:20:46;99560.91;;;15.60;65.63
4570;BME280;2297;51.442;6.996;2022-09-09T02:23:14;99561.09;;;15.57;65.71
4570;BME280;2297;51.442;6.996;2022-09-09T02:25:41;99563.75;;;15.57;65.51
4570;BME280;2297;51.442;6.996;2022-09-09T02:28:10;99561.53;;;15.65;65.42
4570;BME280;2297;51.442;6.996;2022-09-09T02:30:41;99555.69;;;15.74;65.32
4570;BME280;2297;51.442;6.996;2022-09-09T02:33:10;99562.25;;;15.85;65.53
4570;BME280;2297;51.442;6.996;2022-09-09T02:35:38;99559.84;;;15.96;64.86
4570;BME280;2297;51.442;6.996;2022-09-09T02:38:13;99556.94;;;15.85;65.34
4570;BME280;2297;51.442;6.996;2022-09-09T02:40:41;99557.81;;;16.01;65.01
4570;BME280;2297;51.442;6.996;2022-09-09T02:43:08;99564.88;;;16.02;65.02
4570;BME280;2297;51.442;6.996;2022-09-09T02:45:40;99568.06;;;15.75;65.40
4570;BME280;2297;51.442;6.996;2022-09-09T02:48:14;99567.72;;;15.82;65.62
4570;BME280;2297;51.442;6.996;2022-09-09T02:50:54;99559.69;;;15.83;65.53
4570;BME280;2297;51.442;6.996;2022-09-09T02:53:25;99560.03;;;15.93;65.55
4570;BME280;2297;51.442;6.996;2022-09-09T02:55:57;99556.31;;;15.79;66.24
4570;BME280;2297;51.442;6.996;2022-09-09T02:58:26;99556.13;;;15.83;66.49
4570;BME280;2297;51.442;6.996;2022-09-09T03:00:53;99555.38;;;15.96;66.48
4570;BME280;2297;51.442;6.996;2022-09-09T03:03:21;99551.75;;;15.82;66.55
4570;BME280;2297;51.442;6.996;2022-09-09T03:05:47;99553.66;;;15.79;66.61
4570;BME280;2297;51.442;6.996;2022-09-09T03:08:15;99550.91;;;15.81;66.67
4570;BME280;2297;51.442;6.996;2022-09-09T03:10:42;99558.28;;;15.92;66.10
4570;BME280;2297;51.442;6.996;2022-09-09T03:13:09;99557.94;;;15.82;66.58
4570;BME280;2297;51.442;6.996;2022-09-09T03:15:36;99550.44;;;15.57;67.04
4570;BME280;2297;51.442;6.996;2022-09-09T03:18:03;99549.59;;;15.72;66.75
4570;BME280;2297;51.442;6.996;2022-09-09T03:20:31;99546.16;;;15.70;66.65
4570;BME280;2297;51.442;6.996;2022-09-09T03:22:59;99544.88;;;15.77;66.61
4570;BME280;2297;51.442;6.996;2022-09-09T03:25:27;99548.84;;;15.70;66.92
4570;BME280;2297;51.442;6.996;2022-09-09T03:27:54;99547.44;;;15.63;66.77
4570;BME280;2297;51.442;6.996;2022-09-09T03:30:21;99549.41;;;15.59;67.19
4570;BME280;2297;51.442;6.996;2022-09-09T03:32:48;99544.72;;;15.47;67.49
4570;BME280;2297;51.442;6.996;2022-09-09T03:35:15;99544.59;;;15.50;67.40
4570;BME280;2297;51.442;6.996;2022-09-09T03:37:43;99539.50;;;15.45;67.33
4570;BME280;2297;51.442;6.996;2022-09-09T03:40:10;99541.75;;;15.53;67.11
4570;BME280;2297;51.442;6.996;2022-09-09T03:42:37;99544.59;;;15.50;67.06
4570;BME280;2297;51.442;6.996;2022-09-09T03:45:06;99544.28;;;15.39;67.51
4570;BME280;2297;51.442;6.996;2022-09-09T03:47:34;99547.94;;;15.54;67.14
4570;BME280;2297;51.442;6.996;2022-09-09T03:50:01;99549.34;;;15.61;66.56
4570;BME280;2297;51.442;6.996;2022-09-09T03:52:29;99539.94;;;15.54;66.70
4570;BME280;2297;51.442;6.996;2022-09-09T03:54:57;99542.28;;;15.60;66.55
4570;BME280;2297;51.442;6.996;2022-09-09T03:57:23;99544.31;;;15.55;66.98
4570;BME280;2297;51.442;6.996;2022-09-09T03:59:50;99544.28;;;15.39;67.05
4570;BME280;2297;51.442;6.996;2022-09-09T04:02:17;99545.22;;;15.71;65.92
4570;BME280;2297;51.442;6.996;2022-09-09T04:04:43;99546.94;;;15.72;66.27
4570;BME280;2297;51.442;6.996;2022-09-09T04:07:10;99548.91;;;15.69;65.96
4570;BME280;2297;51.442;6.996;2022-09-09T04:09:37;99537.97;;;15.57;66.42
4570;BME280;2297;51.442;6.996;2022-09-09T04:12:05;99544.19;;;15.58;66.24
4570;BME280;2297;51.442;6.996;2022-09-09T04:14:32;99539.50;;;15.45;66.72
4570;BME280;2297;51.442;6.996;2022-09-09T04:16:59;99543.28;;;15.41;66.68
4570;BME280;2297;51.442;6.996;2022-09-09T04:19:25;99542.94;;;15.47;66.75
4570;BME280;2297;51.442;6.996;2022-09-09T04:21:52;99544.06;;;15.26;67.07
4570;BME280;2297;51.442;6.996;2022-09-09T04:24:18;99539.16;;;15.36;67.19
4570;BME280;2297;51.442;6.996;2022-09-09T04:26:46;99536.53;;;15.52;66.65
4570;BME280;2297;51.442;6.996;2022-09-09T04:29:14;99541.06;;;15.50;66.38
4570;BME280;2297;51.442;6.996;2022-09-09T04:31:41;99545.00;;;15.42;66.58
4570;BME280;2297;51.442;6.996;2022-09-09T04:34:08;99541.41;;;15.43;66.65
4570;BME280;2297;51.442;6.996;2022-09-09T04:36:35;99545.69;;;15.46;66.55
4570;BME280;2297;51.442;6.996;2022-09-09T04:39:02;99548.28;;;15.47;66.17
4570;BME280;2297;51.442;6.996;2022-09-09T04:41:29;99546.91;;;15.56;66.17
4570;BME280;2297;51.442;6.996;2022-09-09T04:43:56;99551.69;;;15.50;66.21
4570;BME280;2297;51.442;6.996;2022-09-09T04:46:25;99543.47;;;15.54;66.23
4570;BME280;2297;51.442;6.996;2022-09-09T04:48:52;99545.63;;;15.47;66.59
4570;BME280;2297;51.442;6.996;2022-09-09T04:51:19;99544.50;;;15.52;66.49
4570;BME280;2297;51.442;6.996;2022-09-09T04:53:45;99540.59;;;15.41;66.87
4570;BME280;2297;51.442;6.996;2022-09-09T04:56:15;99542.91;;;15.65;66.04
4570;BME280;2297;51.442;6.996;2022-09-09T04:58:42;99545.84;;;15.43;66.44
4570;BME280;2297;51.442;6.996;2022-09-09T05:01:11;99555.34;;;15.31;67.25
4570;BME280;2297;51.442;6.996;2022-09-09T05:03:39;99536.22;;;15.40;66.97
4570;BME280;2297;51.442;6.996;2022-09-09T05:06:07;99545.88;;;15.59;66.24
4570;BME280;2297;51.442;6.996;2022-09-09T05:08:35;99544.19;;;15.58;66.24
4570;BME280;2297;51.442;6.996;2022-09-09T05:11:02;99540.91;;;15.53;66.43
4570;BME280;2297;51.442;6.996;2022-09-09T05:13:29;99551.56;;;15.53;66.71
4570;BME280;2297;51.442;6.996;2022-09-09T05:15:56;99548.13;;;15.67;66.31
4570;BME280;2297;51.442;6.996;2022-09-09T05:18:23;99551.03;;;15.46;66.64
4570;BME280;2297;51.442;6.996;2022-09-09T05:20:51;99547.09;;;15.69;66.01
4570;BME280;2297;51.442;6.996;2022-09-09T05:23:18;99543.50;;;15.70;65.95
4570;BME280;2297;51.442;6.996;2022-09-09T05:25:54;99547.38;;;15.80;65.54
4570;BME280;2297;51.442;6.996;2022-09-09T05:28:22;99544.25;;;15.72;65.80
4570;BME280;2297;51.442;6.996;2022-09-09T05:30:55;99541.44;;;15.59;66.44
4570;BME280;2297;51.442;6.996;2022-09-09T05:33:22;99537.66;;;15.63;66.30
4570;BME280;2297;51.442;6.996;2022-09-09T05:35:56;99542.47;;;15.73;65.83
4570;BME280;2297;51.442;6.996;2022-09-09T05:38:23;99546.78;;;15.75;65.91
4570;BME280;2297;51.442;6.996;2022-09-09T05:40:50;99536.75;;;15.80;65.63
4570;BME280;2297;51.442;6.996;2022-09-09T05:43:17;99542.81;;;15.67;65.95
4570;BME280;2297;51.442;6.996;2022-09-09T05:45:45;99531.41;;;15.80;65.75
4570;BME280;2297;51.442;6.996;2022-09-09T05:48:12;99530.72;;;15.93;65.53
4570;BME280;2297;51.442;6.996;2022-09-09T05:50:39;99531.53;;;15.95;65.23
4570;BME280;2297;51.442;6.996;2022-09-09T05:53:06;99535.44;;;15.72;65.87
4570;BME280;2297;51.442;6.996;2022-09-09T05:55:33;99543.19;;;15.76;65.78
4570;BME280;2297;51.442;6.996;2022-09-09T05:58:00;99542.31;;;15.92;65.30
4570;BME280;2297;51.442;6.996;2022-09-09T06:00:26;99538.91;;;15.90;65.66
4570;BME280;2297;51.442;6.996;2022-09-09T06:02:54;99539.72;;;15.74;65.81
4570;BME280;2297;51.442;6.996;2022-09-09T06:05:21;99540.44;;;15.94;65.60
4570;BME280;2297;51.442;6.996;2022-09-09T06:07:52;99537.41;;;16.02;65.15
4570;BME280;2297;51.442;6.996;2022-09-09T06:10:20;99553.69;;;16.11;64.87
4570;BME280;2297;51.442;6.996;2022-09-09T06:12:47;99546.66;;;16.10;65.22
4570;BME280;2297;51.442;6.996;2022-09-09T06:15:14;99547.53;;;16.11;64.74
4570;BME280;2297;51.442;6.996;2022-09-09T06:17:40;99550.44;;;16.06;64.84
4570;BME280;2297;51.442;6.996;2022-09-09T06:20:08;99544.41;;;16.19;64.41
4570;BME280;2297;51.442;6.996;2022-09-09T06:22:35;99552.38;;;16.35;63.88
4570;BME280;2297;51.442;6.996;2022-09-09T06:25:02;99546.31;;;16.17;64.51
4570;BME280;2297;51.442;6.996;2022-09-09T06:27:30;99550.09;;;16.12;64.91
4570;BME280;2297;51.442;6.996;2022-09-09T06:29:56;99549.22;;;16.12;64.99
4570;BME280;2297;51.442;6.996;2022-09-09T06:32:23;99556.78;;;16.20;64.65
4570;BME280;2297;51.442;6.996;2022-09-09T06:34:50;99557.66;;;16.36;64.15
4570;BME280;2297;51.442;6.996;2022-09-09T06:37:16;99553.00;;;16.24;64.37
4570;BME280;2297;51.442;6.996;2022-09-09T06:39:43;99555.56;;;16.25;64.37
4570;BME280;2297;51.442;6.996;2022-09-09T06:42:11;99556.69;;;16.37;64.10
4570;BME280;2297;51.442;6.996;2022-09-09T06:44:38;99561.44;;;16.32;64.26
4570;BME280;2297;51.442;6.996;2022-09-09T06:47:05;99564.78;;;16.20;64.37
4570;BME280;2297;51.442;6.996;2022-09-09T06:49:32;99554.22;;;16.18;64.49
4570;BME280;2297;51.442;6.996;2022-09-09T06:52:00;99559.53;;;16.34;64.00
4570;BME280;2297;51.442;6.996;2022-09-09T06:54:27;99557.47;;;16.39;64.10
4570;BME280;2297;51.442;6.996;2022-09-09T06:56:53;99553.88;;;16.40;63.96
4570;BME280;2297;51.442;6.996;2022-09-09T06:59:20;99557.88;;;16.47;63.26
4570;BME280;2297;51.442;6.996;2022-09-09T07:01:48;99557.09;;;16.61;62.75
4570;BME280;2297;51.442;6.996;2022-09-09T07:04:17;99558.25;;;16.41;63.45
4570;BME280;2297;51.442;6.996;2022-09-09T07:06:45;99568.81;;;16.43;63.40
4570;BME280;2297;51.442;6.996;2022-09-09T07:09:13;99560.00;;;16.57;63.33
4570;BME280;2297;51.442;6.996;2022-09-09T07:11:43;99569.41;;;16.78;62.89
4570;BME280;2297;51.442;6.996;2022-09-09T07:14:11;99566.34;;;16.70;62.94
4570;BME280;2297;51.442;6.996;2022-09-09T07:16:39;99565.09;;;16.61;62.61
4570;BME280;2297;51.442;6.996;2022-09-09T07:19:08;99579.28;;;16.46;63.07
4570;BME280;2297;51.442;6.996;2022-09-09T07:21:34;99575.28;;;16.69;62.73
4570;BME280;2297;51.442;6.996;2022-09-09T07:24:02;99581.69;;;16.51;63.10
4570;BME280;2297;51.442;6.996;2022-09-09T07:26:33;99571.88;;;16.67;62.49
4570;BME280;2297;51.442;6.996;2022-09-09T07:28:59;99568.41;;;16.65;62.15
4570;BME280;2297;51.442;6.996;2022-09-09T07:31:27;99577.00;;;16.70;62.49
4570;BME280;2297;51.442;6.996;2022-09-09T07:33:55;99583.88;;;16.74;62.58
4570;BME280;2297;51.442;6.996;2022-09-09T07:36:25;99581.91;;;16.78;62.33
4570;BME280;2297;51.442;6.996;2022-09-09T07:38:54;99582.66;;;16.96;61.62
4570;BME280;2297;51.442;6.996;2022-09-09T07:41:23;99576.78;;;17.05;61.14
4570;BME280;2297;51.442;6.996;2022-09-09T07:43:50;99571.56;;;17.18;61.00
4570;BME280;2297;51.442;6.996;2022-09-09T07:46:20;99575.84;;;17.21;61.00
4570;BME280;2297;51.442;6.996;2022-09-09T07:48:48;99587.63;;;17.02;61.20
4570;BME280;2297;51.442;6.996;2022-09-09T07:51:18;99579.50;;;17.20;60.67
4570;BME280;2297;51.442;6.996;2022-09-09T07:53:51;99587.84;;;17.13;59.65
4570;BME280;2297;51.442;6.996;2022-09-09T07:56:19;99592.53;;;17.24;59.56
4570;BME280;2297;51.442;6.996;2022-09-09T07:58:49;99591.06;;;17.04;59.71
4570;BME280;2297;51.442;6.996;2022-09-09T08:01:18;99588.06;;;17.25;59.29
4570;BME280;2297;51.442;6.996;2022-09-09T08:03:46;99595.16;;;17.55;58.68
4570;BME280;2297;51.442;6.996;2022-09-09T08:06:13;99599.16;;;17.48;58.48
4570;BME280;2297;51.442;6.996;2022-09-09T08:08:40;99598.38;;;17.45;58.50
4570;BME280;2297;51.442;6.996;2022-09-09T08:11:14;99597.03;;;17.24;59.01
4570;BME280;2297;51.442;6.996;2022-09-09T08:13:42;99594.38;;;17.38;58.76
4570;BME280;2297;51.442;6.996;2022-09-09T08:16:12;99592.44;;;17.26;59.02
4570;BME280;2297;51.442;6.996;2022-09-09T08:18:39;99606.75;;;17.39;58.88
4570;BME280;2297;51.442;6.996;2022-09-09T08:21:10;99590.56;;;17.42;59.04
4570;BME280;2297;51.442;6.996;2022-09-09T08:23:39;99598.38;;;17.31;59.21
4570;BME280;2297;51.442;6.996;2022-09-09T08:26:10;99602.59;;;17.50;58.40
4570;BME280;2297;51.442;6.996;2022-09-09T08:28:37;99595.16;;;17.55;58.28
4570;BME280;2297;51.442;6.996;2022-09-09T08:31:09;99597.63;;;17.58;57.58
4570;BME280;2297;51.442;6.996;2022-09-09T08:33:36;99605.25;;;17.64;57.65
4570;BME280;2297;51.442;6.996;2022-09-09T08:36:04;99603.97;;;17.86;56.91
4570;BME280;2297;51.442;6.996;2022-09-09T08:38:30;99601.59;;;17.81;56.38
4570;BME280;2297;51.442;6.996;2022-09-09T08:41:03;99600.13;;;18.04;55.86
4570;BME280;2297;51.442;6.996;2022-09-09T08:43:34;99609.13;;;18.03;54.39
4570;BME280;2297;51.442;6.996;2022-09-09T08:46:08;99606.81;;;17.97;53.84
4570;BME280;2297;51.442;6.996;2022-09-09T08:48:47;99602.91;;;17.88;52.91
4570;BME280;2297;51.442;6.996;2022-09-09T08:51:17;99603.97;;;17.86;52.98
4570;BME280;2297;51.442;6.996;2022-09-09T08:53:47;99615.97;;;17.78;52.40
4570;BME280;2297;51.442;6.996;2022-09-09T08:56:18;99601.28;;;17.71;52.15
4570;BME280;2297;51.442;6.996;2022-09-09T08:58:50;99604.72;;;18.02;51.42
4570;BME280;2297;51.442;6.996;2022-09-09T09:01:30;99606.63;;;18.00;51.37
4570;BME280;2297;51.442;6.996;2022-09-09T09:04:07;99602.22;;;17.99;51.53
4570;BME280;2297;51.442;6.996;2022-09-09T09:06:45;99606.44;;;18.03;51.42
4570;BME280;2297;51.442;6.996;2022-09-09T09:09:20;99607.03;;;17.94;51.32
4570;BME280;2297;51.442;6.996;2022-09-09T09:11:50;99615.56;;;17.99;50.53
4570;BME280;2297;51.442;6.996;2022-09-09T09:14:21;99602.03;;;18.17;50.08
4570;BME280;2297;51.442;6.996;2022-09-09T09:16:52;99598.84;;;18.24;49.73
4570;BME280;2297;51.442;6.996;2022-09-09T09:19:20;99603.09;;;18.41;48.88
4570;BME280;2297;51.442;6.996;2022-09-09T09:21:52;99601.59;;;18.52;48.42
4570;BME280;2297;51.442;6.996;2022-09-09T09:24:25;99612.59;;;18.47;48.69
4570;BME280;2297;51.442;6.996;2022-09-09T09:26:53;99606.09;;;18.37;48.44
4570;BME280;2297;51.442;6.996;2022-09-09T09:29:23;99609.59;;;18.37;48.31
4570;BME280;2297;51.442;6.996;2022-09-09T09:31:53;99611.53;;;18.35;48.13
4570;BME280;2297;51.442;6.996;2022-09-09T09:34:21;99619.56;;;18.50;48.21
4570;BME280;2297;51.442;6.996;2022-09-09T09:36:53;99602.22;;;18.83;47.56
4570;BME280;2297;51.442;6.996;2022-09-09T09:39:25;99619.91;;;18.58;47.78
4570;BME280;2297;51.442;6.996;2022-09-09T09:41:52;99614.78;;;18.95;47.06
4570;BME280;2297;51.442;6.996;2022-09-09T09:44:25;99610.94;;;18.99;47.11
4570;BME280;2297;51.442;6.996;2022-09-09T09:46:53;99612.22;;;19.06;46.92
4570;BME280;2297;51.442;6.996;2022-09-09T09:49:31;99609.81;;;19.16;46.68
4570;BME280;2297;51.442;6.996;2022-09-09T09:52:00;99605.59;;;18.99;46.40
4570;BME280;2297;51.442;6.996;2022-09-09T09:54:28;99617.56;;;18.93;46.61
4570;BME280;2297;51.442;6.996;2022-09-09T09:56:56;99621.38;;;18.89;46.53
4570;BME280;2297;51.442;6.996;2022-09-09T09:59:35;99625.81;;;18.63;46.90
4570;BME280;2297;51.442;6.996;2022-09-09T10:02:15;99613.19;;;18.65;47.25
4570;BME280;2297;51.442;6.996;2022-09-09T10:04:42;99620.03;;;18.69;47.38
4570;BME280;2297;51.442;6.996;2022-09-09T10:07:11;99622.72;;;18.69;47.25
4570;BME280;2297;51.442;6.996;2022-09-09T10:09:37;99621.66;;;18.30;47.97
4570;BME280;2297;51.442;6.996;2022-09-09T10:12:14;99623.53;;;18.42;47.53
4570;BME280;2297;51.442;6.996;2022-09-09T10:14:49;99615.72;;;18.54;47.81
4570;BME280;2297;51.442;6.996;2022-09-09T10:17:25;99612.94;;;18.55;47.69
4570;BME280;2297;51.442;6.996;2022-09-09T10:20:10;99619.34;;;18.53;47.68
4570;BME280;2297;51.442;6.996;2022-09-09T10:22:45;99607.31;;;19.00;47.00
4570;BME280;2297;51.442;6.996;2022-09-09T10:25:22;99609.38;;;19.09;45.91
4570;BME280;2297;51.442;6.996;2022-09-09T10:28:07;99598.50;;;19.38;45.32
4570;BME280;2297;51.442;6.996;2022-09-09T10:30:43;99603.75;;;19.53;43.64
4570;BME280;2297;51.442;6.996;2022-09-09T10:36:27;99605.81;;;19.09;42.11
4570;BME280;2297;51.442;6.996;2022-09-09T10:38:59;99598.31;;;19.01;42.21
4570;BME280;2297;51.442;6.996;2022-09-09T10:41:38;99591.28;;;19.00;42.20
4570;BME280;2297;51.442;6.996;2022-09-09T10:44:33;99598.13;;;19.04;42.87
4570;BME280;2297;51.442;6.996;2022-09-09T10:47:25;99597.91;;;19.07;42.17
4570;BME280;2297;51.442;6.996;2022-09-09T10:50:11;99590.91;;;19.32;42.43
4570;BME280;2297;51.442;6.996;2022-09-09T10:52:46;99591.97;;;19.30;42.31
4570;BME280;2297;51.442;6.996;2022-09-09T10:55:18;99594.34;;;19.60;42.04
4570;BME280;2297;51.442;6.996;2022-09-09T10:57:47;99597.13;;;19.45;42.83
4570;BME280;2297;51.442;6.996;2022-09-09T11:00:18;99587.69;;;19.53;42.88
4570;BME280;2297;51.442;6.996;2022-09-09T11:02:48;99583.00;;;19.69;42.37
4570;BME280;2297;51.442;6.996;2022-09-09T11:05:20;99597.34;;;19.68;42.52
4570;BME280;2297;51.442;6.996;2022-09-09T11:07:49;99578.38;;;19.45;42.67
4570;BME280;2297;51.442;6.996;2022-09-09T11:10:22;99584.00;;;19.15;43.46
4570;BME280;2297;51.442;6.996;2022-09-09T11:12:54;99583.75;;;18.92;44.34
4570;BME280;2297;51.442;6.996;2022-09-09T11:15:29;99582.19;;;19.03;44.28
4570;BME280;2297;51.442;6.996;2022-09-09T11:18:01;99588.03;;;18.95;44.55
4570;BME280;2297;51.442;6.996;2022-09-09T11:20:31;99583.34;;;19.11;45.16
4570;BME280;2297;51.442;6.996;2022-09-09T11:23:00;99577.03;;;19.12;44.61
4570;BME280;2297;51.442;6.996;2022-09-09T11:25:32;99578.28;;;19.60;44.21
4570;BME280;2297;51.442;6.996;2022-09-09T11:28:24;99581.88;;;19.85;43.26
4570;BME280;2297;51.442;6.996;2022-09-09T11:31:04;99578.03;;;20.02;42.94
4570;BME280;2297;51.442;6.996;2022-09-09T11:33:49;99578.47;;;19.57;43.18
4570;BME280;2297;51.442;6.996;2022-09-09T11:36:26;99573.53;;;19.64;43.14
4570;BME280;2297;51.442;6.996;2022-09-09T11:39:12;99575.91;;;19.81;42.85
4570;BME280;2297;51.442;6.996;2022-09-09T11:41:46;99560.91;;;19.66;43.47
4570;BME280;2297;51.442;6.996;2022-09-09T11:44:18;99573.13;;;19.57;43.31
4570;BME280;2297;51.442;6.996;2022-09-09T11:46:50;99568.63;;;19.44;43.58
4570;BME280;2297;51.442;6.996;2022-09-09T11:49:27;99568.22;;;19.51;43.84
4570;BME280;2297;51.442;6.996;2022-09-09T11:51:54;99562.94;;;19.62;43.96
4570;BME280;2297;51.442;6.996;2022-09-09T11:54:31;99572.44;;;19.15;45.26
4570;BME280;2297;51.442;6.996;2022-09-09T11:56:59;99587.34;;;18.78;48.69
4570;BME280;2297;51.442;6.996;2022-09-09T11:59:28;99586.72;;;18.88;50.16
4570;BME280;2297;51.442;6.996;2022-09-09T12:01:57;99582.00;;;18.78;50.70
4570;BME280;2297;51.442;6.996;2022-09-09T12:04:35;99594.63;;;18.76;50.44
4570;BME280;2297;51.442;6.996;2022-09-09T12:07:23;99589.53;;;18.99;49.77
4570;BME280;2297;51.442;6.996;2022-09-09T12:09:54;99591.06;;;19.03;49.04
4570;BME280;2297;51.442;6.996;2022-09-09T12:12:29;99583.09;;;19.55;48.63
4570;BME280;2297;51.442;6.996;2022-09-09T12:14:59;99580.84;;;19.49;48.81
4570;BME280;2297;51.442;6.996;2022-09-09T12:17:28;99588.22;;;19.84;48.13
4570;BME280;2297;51.442;6.996;2022-09-09T12:20:06;99581.50;;;19.65;48.44
4570;BME280;2297;51.442;6.996;2022-09-09T12:22:43;99587.03;;;19.62;48.31
4570;BME280;2297;51.442;6.996;2022-09-09T12:25:20;99588.88;;;19.49;48.13
4570;BME280;2297;51.442;6.996;2022-09-09T12:28:00;99587.47;;;19.30;48.09
4570;BME280;2297;51.442;6.996;2022-09-09T12:30:31;99591.31;;;19.26;48.37
4570;BME280;2297;51.442;6.996;2022-09-09T12:33:02;99591.50;;;19.10;48.61
4570;BME280;2297;51.442;6.996;2022-09-09T12:35:31;99584.66;;;19.19;48.26
4570;BME280;2297;51.442;6.996;2022-09-09T12:37:59;99586.19;;;19.36;47.72
4570;BME280;2297;51.442;6.996;2022-09-09T12:40:29;99593.91;;;19.66;47.37
4570;BME280;2297;51.442;6.996;2022-09-09T12:42:58;99591.09;;;19.81;46.17
4570;BME280;2297;51.442;6.996;2022-09-09T12:45:28;99587.88;;;19.88;45.76
4570;BME280;2297;51.442;6.996;2022-09-09T12:47:58;99584.44;;;20.12;45.67
4570;BME280;2297;51.442;6.996;2022-09-09T12:50:28;99576.34;;;19.75;46.19
4570;BME280;2297;51.442;6.996;2022-09-09T12:52:58;99577.81;;;20.05;45.91
4570;BME280;2297;51.442;6.996;2022-09-09T12:55:30;99576.22;;;19.76;46.73
4570;BME280;2297;51.442;6.996;2022-09-09T12:57:59;99568.81;;;19.80;46.90
4570;BME280;2297;51.442;6.996;2022-09-09T13:00:29;99573.75;;;19.99;46.81
4570;BME280;2297;51.442;6.996;2022-09-09T13:02:58;99569.25;;;19.87;46.94
4570;BME280;2297;51.442;6.996;2022-09-09T13:05:28;99562.31;;;19.58;46.98
4570;BME280;2297;51.442;6.996;2022-09-09T13:08:02;99562.63;;;19.41;47.12
4570;BME280;2297;51.442;6.996;2022-09-09T13:10:32;99570.50;;;19.17;48.03
4570;BME280;2297;51.442;6.996;2022-09-09T13:13:00;99581.00;;;19.07;49.10
4570;BME280;2297;51.442;6.996;2022-09-09T13:15:28;99593.13;;;18.85;51.65
4570;BME280;2297;51.442;6.996;2022-09-09T13:17:57;99602.75;;;18.48;53.44
4570;BME280;2297;51.442;6.996;2022-09-09T13:20:26;99595.63;;;18.19;55.93
4570;BME280;2297;51.442;6.996;2022-09-09T13:22:54;99597.81;;;17.55;58.54
4570;BME280;2297;51.442;6.996;2022-09-09T13:25:25;99593.56;;;17.81;57.64
4570;BME280;2297;51.442;6.996;2022-09-09T13:27:57;99592.88;;;18.21;56.05
4570;BME280;2297;51.442;6.996;2022-09-09T13:30:26;99588.41;;;17.63;57.37
4570;BME280;2297;51.442;6.996;2022-09-09T13:33:17;99586.78;;;17.46;58.46
4570;BME280;2297;51.442;6.996;2022-09-09T13:35:47;99582.66;;;17.55;59.08
4570;BME280;2297;51.442;6.996;2022-09-09T13:38:14;99579.19;;;17.69;58.83
4570;BME280;2297;51.442;6.996;2022-09-09T13:40:54;99577.81;;;18.05;57.51
4570;BME280;2297;51.442;6.996;2022-09-09T13:43:23;99580.91;;;18.68;56.00
4570;BME280;2297;51.442;6.996;2022-09-09T13:45:55;99584.94;;;19.01;54.66